createdAt,value
2017-11-20T13:05:33.491Z,83.72
2017-11-20T13:06:14.058Z,83.34
2017-11-20T13:06:54.644Z,83.25
2017-11-20T13:07:35.207Z,83.44
2017-11-20T13:08:15.799Z,83.44
2017-11-20T13:08:56.357Z,83.53
2017-11-20T13:09:36.929Z,83.53
2017-11-20T13:10:17.487Z,83.53
2017-11-20T13:10:58.051Z,83.62
2017-11-20T13:11:38.629Z,83.59
2017-11-20T13:12:19.208Z,83.78
2017-11-20T13:12:59.778Z,83.59
2017-11-20T13:13:40.341Z,84.25
2017-11-20T13:14:20.901Z,84.44
2017-11-20T13:15:01.492Z,84.25
2017-11-20T13:15:42.048Z,84.63
2017-11-20T13:16:22.630Z,85.01
2017-11-20T13:17:03.180Z,85.11
2017-11-20T13:17:43.738Z,85.01
2017-11-20T13:18:24.318Z,84.91
2017-11-20T13:19:04.881Z,85.01
2017-11-20T13:19:45.484Z,85.2
2017-11-20T13:20:26.047Z,84.82
2017-11-20T13:21:06.628Z,84.72
2017-11-20T13:21:47.229Z,85.11
2017-11-20T13:22:27.809Z,84.63
2017-11-20T13:23:08.398Z,84.82
2017-11-20T13:23:48.956Z,85.01
2017-11-20T13:24:29.545Z,84.63
2017-11-20T13:25:10.133Z,84.82
2017-11-20T13:25:50.688Z,84.82
2017-11-20T13:26:31.264Z,84.91
2017-11-20T13:27:11.869Z,85.3
2017-11-20T13:27:52.430Z,85.01
2017-11-20T13:28:33.017Z,84.53
2017-11-20T13:29:13.591Z,85.2
2017-11-20T13:29:54.176Z,84.44
2017-11-20T13:30:34.752Z,84.34
2017-11-20T13:31:15.356Z,84.44
2017-11-20T13:31:55.907Z,84.34
2017-11-20T13:32:36.469Z,84.82
2017-11-20T13:33:17.049Z,84.63
2017-11-20T13:33:57.640Z,84.44
2017-11-20T13:34:38.220Z,84.53
2017-11-20T13:35:18.793Z,84.44
2017-11-20T13:35:59.362Z,85.01
2017-11-20T13:36:39.942Z,84.82
2017-11-20T13:37:20.529Z,85.11
2017-11-20T13:38:01.103Z,85.49
2017-11-20T13:38:41.693Z,85.58
2017-11-20T13:39:22.289Z,85.11
2017-11-20T13:40:02.869Z,84.82
2017-11-20T13:40:43.434Z,84.63
2017-11-20T13:41:24.024Z,85.11
2017-11-20T13:42:04.579Z,85.3
2017-11-20T13:42:45.146Z,84.82
2017-11-20T13:43:25.713Z,85.2
2017-11-20T13:44:06.296Z,84.82
2017-11-20T13:44:46.866Z,85.01
2017-11-20T13:45:27.447Z,84.44
2017-11-20T13:46:08.022Z,85.01
2017-11-20T13:46:48.621Z,85.01
2017-11-20T13:47:29.213Z,85.49
2017-11-20T13:48:09.788Z,85.39
2017-11-20T13:48:50.333Z,85.39
2017-11-20T13:49:30.908Z,85.01
2017-11-20T13:50:11.506Z,85.2
2017-11-20T13:50:52.052Z,85.3
2017-11-20T13:51:32.599Z,85.11
2017-11-20T13:52:13.153Z,85.11
2017-11-20T13:52:53.703Z,84.82
2017-11-20T13:53:34.264Z,85.2
2017-11-20T13:54:14.823Z,85.11
2017-11-20T13:54:55.381Z,85.11
2017-11-20T13:55:35.938Z,85.11
2017-11-20T13:56:16.488Z,85.3
2017-11-20T13:56:57.046Z,84.72
2017-11-20T13:57:37.635Z,84.82
2017-11-20T13:58:18.193Z,84.53
2017-11-20T13:58:58.792Z,84.44
2017-11-20T13:59:39.345Z,84.63
2017-11-20T14:00:19.906Z,84.25
2017-11-20T14:01:00.514Z,84.25
2017-11-20T14:01:41.064Z,84.72
2017-11-20T14:02:21.621Z,84.34
2017-11-20T14:03:02.197Z,84.44
2017-11-20T14:03:42.744Z,84.91
2017-11-20T14:04:23.311Z,84.53
2017-11-20T14:05:03.908Z,84.34
2017-11-20T14:05:44.459Z,84.63
2017-11-20T14:06:25.025Z,85.11
2017-11-20T14:07:05.581Z,84.91
2017-11-20T14:07:46.165Z,84.44
2017-11-20T14:08:26.746Z,84.82
2017-11-20T14:09:07.364Z,84.63
2017-11-20T14:09:47.915Z,84.82
2017-11-20T14:10:28.492Z,85.01
2017-11-20T14:11:09.057Z,84.53
2017-11-20T14:11:49.661Z,83.97
2017-11-20T14:12:30.240Z,84.53
2017-11-20T14:13:10.819Z,84.44
2017-11-20T14:13:51.408Z,84.91
2017-11-20T14:14:31.979Z,84.91
2017-11-20T14:15:12.567Z,85.01
2017-11-20T14:15:53.143Z,84.44
2017-11-20T14:16:33.729Z,84.72
2017-11-20T14:17:14.328Z,84.25
2017-11-20T14:17:54.883Z,83.68
2017-11-20T14:18:35.461Z,83.3
2017-11-20T14:19:16.026Z,83.11
2017-11-20T14:19:57.365Z,82.82
2017-11-20T14:20:39.156Z,83.59
2017-11-20T14:21:20.813Z,83.3
2017-11-20T14:22:02.301Z,83.49
2017-11-20T14:22:43.587Z,83.49
2017-11-20T14:23:24.283Z,83.39
2017-11-20T14:24:04.856Z,83.3
2017-11-20T14:24:45.530Z,83.11
2017-11-20T14:25:26.133Z,83.39
2017-11-20T14:26:06.715Z,83.39
2017-11-20T14:26:47.502Z,83.39
2017-11-20T14:27:28.297Z,83.39
2017-11-20T14:28:09.202Z,83.49
2017-11-20T14:28:50.025Z,83.78
2017-11-20T14:29:30.860Z,83.87
2017-11-20T14:30:12.170Z,83.78
2017-11-20T14:30:52.942Z,83.87
2017-11-20T14:31:33.821Z,83.3
2017-11-20T14:32:14.703Z,83.59
2017-11-20T14:32:55.563Z,83.39
2017-11-20T14:33:36.193Z,83.59
2017-11-20T14:34:16.775Z,83.01
2017-11-20T14:34:57.422Z,83.3
2017-11-20T14:35:38.216Z,83.59
2017-11-20T14:36:19.262Z,83.59
2017-11-20T14:37:00.076Z,83.49
2017-11-20T14:37:41.113Z,83.3
2017-11-20T14:38:21.849Z,83.3
2017-11-20T14:39:02.667Z,83.59
2017-11-20T14:39:43.531Z,83.59
2017-11-20T14:40:24.303Z,83.59
2017-11-20T14:41:05.161Z,83.87
2017-11-20T14:41:46.056Z,84.34
2017-11-20T14:42:26.899Z,84.06
2017-11-20T14:43:07.760Z,84.34
2017-11-20T14:43:48.552Z,84.06
2017-11-20T14:44:29.462Z,84.53
2017-11-20T14:45:10.294Z,84.63
2017-11-20T14:45:51.050Z,84.82
2017-11-20T14:46:31.763Z,84.44
2017-11-20T14:47:12.621Z,84.53
2017-11-20T14:47:53.503Z,84.63
2017-11-20T14:48:34.519Z,84.44
2017-11-20T14:49:15.410Z,84.63
2017-11-20T14:49:56.223Z,84.63
2017-11-20T14:50:36.981Z,84.53
2017-11-20T14:51:17.899Z,84.53
2017-11-20T14:51:58.737Z,84.91
2017-11-20T14:52:39.594Z,85.01
2017-11-20T14:53:20.400Z,85.11
2017-11-20T14:54:01.174Z,84.44
2017-11-20T14:54:42.086Z,84.63
2017-11-20T14:55:22.951Z,84.72
2017-11-20T14:56:03.680Z,84.63
2017-11-20T14:56:44.438Z,85.11
2017-11-20T14:57:25.349Z,84.91
2017-11-20T14:58:06.301Z,85.11
2017-11-20T14:58:46.897Z,84.91
2017-11-20T14:59:27.674Z,85.39
2017-11-20T15:00:08.533Z,84.91
2017-11-20T15:00:49.441Z,85.39
2017-11-20T15:01:30.300Z,85.39
2017-11-20T15:02:11.087Z,85.49
2017-11-20T15:02:51.969Z,85.49
2017-11-20T15:03:32.938Z,85.49
2017-11-20T15:04:13.501Z,85.2
2017-11-20T15:04:54.070Z,85.39
2017-11-20T15:05:35.386Z,85.3
2017-11-20T15:06:16.146Z,85.77
2017-11-20T15:06:56.915Z,85.49
2017-11-20T15:07:37.760Z,85.58
2017-11-20T15:08:18.586Z,85.49
2017-11-20T15:08:59.328Z,85.58
2017-11-20T15:09:40.156Z,86.15
2017-11-20T15:10:20.730Z,86.15
2017-11-20T15:11:01.491Z,86.05
2017-11-20T15:11:42.370Z,85.86
2017-11-20T15:12:23.264Z,86.34
2017-11-20T15:13:04.127Z,86.24
2017-11-20T15:13:45.046Z,86.63
2017-11-20T15:14:25.800Z,86.82
2017-11-20T15:15:06.693Z,87.19
2017-11-20T15:15:47.593Z,87.01
2017-11-20T15:16:28.327Z,87.1
2017-11-20T15:17:08.891Z,87.38
2017-11-20T15:17:49.853Z,87.76
2017-11-20T15:18:30.725Z,87.57
2017-11-20T15:19:11.692Z,88.15
2017-11-20T15:19:53.215Z,87.95
2017-11-20T15:20:34.126Z,87.76
2017-11-20T15:21:15.017Z,87.95
2017-11-20T15:21:55.913Z,87.95
2017-11-20T15:22:36.886Z,88.05
2017-11-20T15:23:17.739Z,88.53
2017-11-20T15:23:58.600Z,88.43
2017-11-20T15:24:39.306Z,89.09
2017-11-20T15:25:20.267Z,88.71
2017-11-20T15:26:01.071Z,89
2017-11-20T15:26:41.954Z,89.28
2017-11-20T15:27:22.805Z,89.38
2017-11-20T15:28:03.541Z,89.09
2017-11-20T15:28:44.411Z,89.19
2017-11-20T15:29:25.193Z,89.19
2017-11-20T15:30:06.063Z,89.38
2017-11-20T15:30:46.889Z,89.28
2017-11-20T15:31:27.744Z,89.28
2017-11-20T15:32:08.861Z,89.28
2017-11-20T15:32:49.443Z,89.19
2017-11-20T15:33:30.315Z,89.28
2017-11-20T15:34:11.328Z,89.28
2017-11-20T15:34:52.073Z,89.09
2017-11-20T15:35:32.838Z,89.47
2017-11-20T15:36:13.667Z,89.57
2017-11-20T15:36:54.486Z,89.47
2017-11-20T15:37:35.406Z,89.67
2017-11-20T15:38:16.410Z,89.57
2017-11-20T15:38:57.240Z,89.38
2017-11-20T15:39:38.266Z,89.67
2017-11-20T15:40:19.191Z,89.67
2017-11-20T15:41:00.072Z,89.67
2017-11-20T15:41:40.969Z,89.57
2017-11-20T15:42:21.861Z,89.67
2017-11-20T15:43:02.538Z,89.76
2017-11-20T15:43:43.507Z,89.57
2017-11-20T15:44:24.264Z,90.14
2017-11-20T15:45:05.128Z,90.23
2017-11-20T15:45:45.979Z,90.14
2017-11-20T15:46:26.875Z,89.95
2017-11-20T15:47:07.847Z,90.23
2017-11-20T15:47:48.626Z,89.95
2017-11-20T15:48:29.470Z,90.05
2017-11-20T15:49:10.392Z,90.23
2017-11-20T15:49:51.257Z,90.61
2017-11-20T15:50:32.243Z,90.61
2017-11-20T15:51:12.844Z,90.23
2017-11-20T15:51:53.788Z,90.61
2017-11-20T15:52:34.613Z,90.52
2017-11-20T15:53:15.374Z,90.42
2017-11-20T15:53:56.242Z,90.42
2017-11-20T15:54:37.133Z,90.42
2017-11-20T15:55:18.308Z,90.9
2017-11-20T15:55:58.909Z,90.23
2017-11-20T15:56:39.790Z,90.42
2017-11-20T15:57:20.740Z,90.14
2017-11-20T15:58:01.614Z,90.23
2017-11-20T15:58:42.455Z,90.71
2017-11-20T15:59:23.538Z,90.61
2017-11-20T16:00:04.460Z,90.71
2017-11-20T16:00:45.481Z,90.71
2017-11-20T16:01:25.927Z,90.9
2017-11-20T16:02:06.584Z,90.9
2017-11-20T16:02:47.436Z,90.99
2017-11-20T16:03:28.356Z,91.47
2017-11-20T16:04:09.566Z,91.38
2017-11-20T16:04:50.350Z,91.47
2017-11-20T16:05:31.025Z,91.19
2017-11-20T16:06:11.855Z,91.47
2017-11-20T16:06:52.775Z,91.28
2017-11-20T16:07:33.384Z,91.38
2017-11-20T16:08:13.927Z,91.28
2017-11-20T16:08:54.591Z,91.66
2017-11-20T16:09:35.407Z,91.52
2017-11-20T16:10:15.983Z,91.66
2017-11-20T16:10:56.725Z,92.04
2017-11-20T16:11:37.397Z,91.56
2017-11-20T16:12:17.990Z,91.75
2017-11-20T16:12:58.594Z,91.8
2017-11-20T16:13:39.304Z,91.33
2017-11-20T16:14:19.909Z,91.8
2017-11-20T16:15:00.561Z,92.13
2017-11-20T16:15:47.574Z,91.66
2017-11-20T16:16:40.017Z,91.8
2017-11-20T16:17:20.667Z,91.89
2017-11-20T16:18:01.220Z,91.94
2017-11-20T16:18:41.807Z,91.56
2017-11-20T16:19:22.415Z,91.52
2017-11-20T16:20:02.979Z,92.18
2017-11-20T16:20:43.579Z,92.09
2017-11-20T16:21:24.160Z,92.28
2017-11-20T16:22:04.732Z,92.37
2017-11-20T16:22:45.303Z,92.47
2017-11-20T16:23:25.901Z,93.13
2017-11-20T16:24:06.451Z,93.13
2017-11-20T16:24:47.715Z,92.75
2017-11-20T16:25:33.485Z,92.85
2017-11-20T16:26:17.074Z,92.85
2017-11-20T16:26:57.649Z,93.7
2017-11-20T16:27:38.209Z,93.6
2017-11-20T16:28:18.781Z,93.32
2017-11-20T16:28:59.341Z,93.23
2017-11-20T16:29:39.915Z,92.94
2017-11-20T16:30:20.582Z,93.41
2017-11-20T16:31:01.197Z,93.41
2017-11-20T16:31:41.735Z,93.51
2017-11-20T16:32:22.315Z,93.41
2017-11-20T16:33:02.887Z,93.32
2017-11-20T16:33:43.453Z,93.41
2017-11-20T16:34:24.069Z,93.13
2017-11-20T16:35:04.705Z,93.32
2017-11-20T16:35:45.446Z,93.23
2017-11-20T16:36:25.996Z,93.32
2017-11-20T16:37:06.595Z,93.32
2017-11-20T16:37:47.196Z,93.32
2017-11-20T16:38:27.763Z,93.32
2017-11-20T16:39:08.317Z,93.32
2017-11-20T16:39:48.891Z,93.13
2017-11-20T16:40:29.499Z,93.13
2017-11-20T16:41:10.066Z,93.13
2017-11-20T16:41:50.625Z,93.13
2017-11-20T16:42:31.198Z,93.13
2017-11-20T16:43:11.764Z,93.13
2017-11-20T16:43:52.324Z,93.13
2017-11-20T16:44:32.898Z,93.13
2017-11-20T16:45:13.481Z,93.51
2017-11-20T16:45:54.041Z,93.13
2017-11-20T16:46:34.621Z,93.23
2017-11-20T16:47:15.191Z,93.23
2017-11-20T16:47:55.752Z,93.8
2017-11-20T16:48:36.560Z,93.8
2017-11-20T16:49:17.196Z,93.7
2017-11-20T16:49:57.759Z,93.6
2017-11-20T16:50:38.332Z,93.6
2017-11-20T16:51:19.057Z,94.08
2017-11-20T16:51:59.685Z,94.37
2017-11-20T16:52:40.311Z,94.18
2017-11-20T16:53:20.904Z,94.37
2017-11-20T16:54:01.486Z,94.18
2017-11-20T16:54:42.062Z,94.18
2017-11-20T16:55:22.640Z,94.27
2017-11-20T16:56:03.389Z,94.08
2017-11-20T16:56:43.955Z,94.56
2017-11-20T16:57:24.532Z,94.27
2017-11-20T16:58:05.129Z,94.74
2017-11-20T16:58:45.863Z,94.74
2017-11-20T16:59:26.440Z,94.56
2017-11-20T17:00:07.011Z,94.46
2017-11-20T17:00:47.597Z,94.56
2017-11-20T17:01:28.219Z,94.46
2017-11-20T17:02:09.478Z,94.56
2017-11-20T17:02:50.432Z,94.65
2017-11-20T17:03:31.172Z,94.56
2017-11-20T17:04:11.750Z,94.56
2017-11-20T17:04:52.329Z,94.37
2017-11-20T17:05:32.918Z,94.27
2017-11-20T17:06:13.574Z,94.56
2017-11-20T17:06:54.155Z,94.93
2017-11-20T17:07:34.783Z,94.46
2017-11-20T17:08:15.346Z,94.46
2017-11-20T17:08:55.998Z,94.65
2017-11-20T17:09:36.640Z,95.89
2017-11-20T17:10:17.249Z,96.64
2017-11-20T17:10:57.893Z,96.36
2017-11-20T17:11:38.534Z,95.79
2017-11-20T17:12:19.130Z,95.31
2017-11-20T17:12:59.766Z,94.84
2017-11-20T17:13:40.317Z,94.46
2017-11-20T17:14:20.896Z,94.08
2017-11-20T17:15:01.482Z,94.18
2017-11-20T17:15:42.064Z,93.6
2017-11-20T17:16:22.659Z,93.8
2017-11-20T17:17:03.426Z,93.8
2017-11-20T17:17:43.961Z,93.7
2017-11-20T17:18:24.772Z,93.6
2017-11-20T17:19:05.347Z,93.8
2017-11-20T17:19:45.924Z,93.6
2017-11-20T17:20:26.483Z,93.89
2017-11-20T17:21:07.065Z,94.18
2017-11-20T17:21:47.630Z,94.27
2017-11-20T17:22:28.226Z,94.74
2017-11-20T17:23:08.820Z,94.46
2017-11-20T17:23:49.409Z,94.65
2017-11-20T17:24:30.087Z,94.56
2017-11-20T17:25:10.667Z,94.56
2017-11-20T17:25:51.223Z,94.84
2017-11-20T17:26:31.809Z,94.46
2017-11-20T17:27:12.400Z,94.56
2017-11-20T17:27:52.936Z,94.46
2017-11-20T17:28:33.512Z,94.46
2017-11-20T17:29:14.117Z,94.56
2017-11-20T17:29:54.767Z,94.46
2017-11-20T17:30:35.372Z,94.46
2017-11-20T17:31:16.117Z,94.56
2017-11-20T17:31:56.750Z,94.46
2017-11-20T17:32:37.323Z,94.08
2017-11-20T17:33:17.927Z,95.12
2017-11-20T17:33:58.649Z,95.12
2017-11-20T17:34:39.227Z,94.08
2017-11-20T17:35:19.796Z,95.12
2017-11-20T17:36:00.361Z,95.22
2017-11-20T17:36:40.933Z,94.74
2017-11-20T17:37:21.537Z,94.84
2017-11-20T17:38:02.156Z,95.12
2017-11-20T17:38:42.825Z,94.93
2017-11-20T17:39:23.357Z,94.74
2017-11-20T17:40:03.917Z,94.74
2017-11-20T17:40:46.723Z,94.84
2017-11-20T17:41:27.335Z,94.84
2017-11-20T17:42:07.991Z,94.93
2017-11-20T17:42:48.904Z,94.93
2017-11-20T17:43:30.104Z,94.84
2017-11-20T17:44:10.746Z,94.84
2017-11-20T17:44:56.367Z,94.27
2017-11-20T17:45:37.003Z,94.65
2017-11-20T17:46:17.736Z,94.93
2017-11-20T17:46:58.494Z,94.84
2017-11-20T17:47:39.173Z,94.93
2017-11-20T17:48:20.015Z,95.12
2017-11-20T17:49:00.643Z,94.65
2017-11-20T17:49:41.233Z,95.03
2017-11-20T17:50:22.089Z,95.03
2017-11-20T17:51:02.671Z,94.46
2017-11-20T17:51:43.292Z,94.84
2017-11-20T17:52:24.333Z,95.03
2017-11-20T17:53:05.029Z,94.74
2017-11-20T17:53:45.725Z,94.84
2017-11-20T17:54:26.320Z,94.56
2017-11-20T17:55:07.009Z,95.03
2017-11-20T17:55:47.723Z,94.74
2017-11-20T17:56:28.336Z,94.56
2017-11-20T17:57:09.035Z,94.46
2017-11-20T17:57:49.809Z,94.65
2017-11-20T17:58:30.415Z,94.37
2017-11-20T17:59:11.102Z,94.46
2017-11-20T17:59:51.698Z,95.22
2017-11-20T18:00:32.303Z,94.46
2017-11-20T18:01:12.924Z,94.84
2017-11-20T18:01:53.543Z,94.65
2017-11-20T18:02:34.150Z,94.56
2017-11-20T18:03:14.807Z,94.84
2017-11-20T18:03:55.376Z,94.65
2017-11-20T18:04:35.982Z,94.65
2017-11-20T18:05:16.619Z,94.84
2017-11-20T18:05:57.205Z,94.46
2017-11-20T18:06:37.808Z,94.74
2017-11-20T18:07:18.417Z,94.65
2017-11-20T18:07:59.110Z,94.84
2017-11-20T18:08:39.751Z,94.74
2017-11-20T18:09:20.330Z,94.65
2017-11-20T18:10:00.959Z,94.74
2017-11-20T18:10:41.574Z,94.84
2017-11-20T18:11:22.180Z,94.84
2017-11-20T18:12:02.764Z,94.84
2017-11-20T18:12:43.359Z,95.12
2017-11-20T18:13:23.933Z,94.84
2017-11-20T18:14:04.560Z,95.03
2017-11-20T18:14:45.246Z,94.46
2017-11-20T18:15:25.921Z,94.46
2017-11-20T18:16:06.543Z,94.37
2017-11-20T18:16:47.110Z,94.56
2017-11-20T18:17:27.712Z,94.46
2017-11-20T18:18:08.325Z,94.27
2017-11-20T18:18:48.914Z,94.46
2017-11-20T18:19:29.515Z,94.46
2017-11-20T18:20:10.180Z,94.08
2017-11-20T18:20:50.794Z,94.08
2017-11-20T18:21:31.444Z,94.08
2017-11-20T18:22:12.055Z,94.27
2017-11-20T18:22:52.920Z,94.08
2017-11-20T18:23:33.684Z,94.08
2017-11-20T18:24:14.336Z,94.08
2017-11-20T18:24:54.940Z,93.99
2017-11-20T18:25:35.595Z,94.08
2017-11-20T18:26:16.161Z,94.37
2017-11-20T18:26:56.799Z,94.56
2017-11-20T18:27:37.413Z,94.74
2017-11-20T18:28:18.004Z,94.56
2017-11-20T18:28:58.581Z,94.46
2017-11-20T18:29:39.166Z,94.74
2017-11-20T18:30:19.769Z,94.37
2017-11-20T18:31:00.404Z,94.46
2017-11-20T18:31:41.060Z,94.65
2017-11-20T18:32:21.675Z,94.46
2017-11-20T18:33:02.349Z,94.37
2017-11-20T18:33:42.997Z,94.08
2017-11-20T18:34:23.626Z,93.89
2017-11-20T18:35:04.212Z,93.8
2017-11-20T18:35:44.814Z,93.89
2017-11-20T18:36:25.409Z,93.8
2017-11-20T18:37:06.016Z,93.7
2017-11-20T18:37:46.648Z,93.6
2017-11-20T18:38:27.247Z,94.37
2017-11-20T18:39:07.859Z,93.99
2017-11-20T18:39:48.488Z,94.18
2017-11-20T18:40:29.061Z,93.8
2017-11-20T18:41:09.655Z,93.7
2017-11-20T18:41:50.241Z,93.6
2017-11-20T18:42:30.832Z,93.99
2017-11-20T18:43:11.439Z,93.89
2017-11-20T18:43:52.040Z,94.08
2017-11-20T18:44:32.696Z,93.32
2017-11-20T18:45:13.303Z,93.13
2017-11-20T18:45:53.891Z,93.41
2017-11-20T18:46:34.495Z,93.13
2017-11-20T18:47:15.107Z,93.23
2017-11-20T18:47:55.699Z,93.13
2017-11-20T18:48:36.257Z,93.32
2017-11-20T18:49:16.829Z,93.13
2017-11-20T18:49:57.475Z,93.13
2017-11-20T18:50:38.150Z,92.94
2017-11-20T18:51:18.737Z,93.23
2017-11-20T18:51:59.349Z,93.23
2017-11-20T18:52:40.044Z,93.32
2017-11-20T18:53:20.758Z,93.32
2017-11-20T18:54:01.338Z,93.32
2017-11-20T18:54:41.936Z,93.32
2017-11-20T18:55:22.504Z,93.51
2017-11-20T18:56:03.145Z,93.23
2017-11-20T18:56:43.748Z,92.09
2017-11-20T18:57:24.372Z,92.56
2017-11-20T18:58:04.946Z,92.56
2017-11-20T18:58:45.565Z,92.56
2017-11-20T18:59:26.162Z,92.37
2017-11-20T19:00:06.776Z,92.28
2017-11-20T19:00:47.345Z,92.85
2017-11-20T19:01:27.915Z,92.75
2017-11-20T19:02:08.473Z,92.66
2017-11-20T19:02:49.052Z,92.47
2017-11-20T19:03:29.704Z,91.99
2017-11-20T19:04:10.323Z,92.28
2017-11-20T19:04:50.901Z,92.28
2017-11-20T19:05:31.478Z,92.28
2017-11-20T19:06:12.083Z,92.18
2017-11-20T19:06:52.682Z,91.99
2017-11-20T19:07:33.562Z,92.18
2017-11-20T19:08:14.728Z,92.09
2017-11-20T19:08:55.509Z,92.28
2017-11-20T19:09:36.103Z,91.99
2017-11-20T19:10:16.696Z,92.09
2017-11-20T19:10:57.287Z,92.09
2017-11-20T19:11:37.876Z,91.99
2017-11-20T19:12:18.472Z,92.14
2017-11-20T19:12:59.046Z,91.99
2017-11-20T19:13:39.647Z,92.09
2017-11-20T19:14:20.204Z,92.09
2017-11-20T19:15:00.768Z,92.23
2017-11-20T19:15:41.352Z,92.14
2017-11-20T19:16:22.629Z,92.47
2017-11-20T19:17:03.202Z,92.61
2017-11-20T19:17:43.786Z,92.47
2017-11-20T19:18:24.349Z,92.42
2017-11-20T19:19:04.916Z,92.9
2017-11-20T19:19:45.500Z,92.61
2017-11-20T19:20:26.057Z,93.23
2017-11-20T19:21:06.622Z,92.8
2017-11-20T19:21:47.224Z,93.18
2017-11-20T19:22:27.772Z,93.08
2017-11-20T19:23:08.338Z,92.99
2017-11-20T19:23:54.851Z,93.08
2017-11-20T19:24:35.418Z,92.85
2017-11-20T19:25:15.977Z,93.41
2017-11-20T19:25:56.557Z,93.37
2017-11-20T19:26:37.170Z,92.66
2017-11-20T19:27:17.762Z,92.71
2017-11-20T19:27:58.369Z,93.04
2017-11-20T19:28:38.971Z,92.9
2017-11-20T19:29:19.563Z,92.75
2017-11-20T19:30:00.132Z,93.51
2017-11-20T19:30:40.760Z,93.41
2017-11-20T19:31:21.372Z,93.32
2017-11-20T19:32:01.973Z,93.6
2017-11-20T19:32:42.549Z,93.04
2017-11-20T19:33:23.134Z,93.13
2017-11-20T19:34:03.710Z,92.66
2017-11-20T19:34:44.303Z,93.32
2017-11-20T19:35:24.882Z,92.56
2017-11-20T19:36:05.819Z,93.13
2017-11-20T19:36:46.402Z,93.04
2017-11-20T19:37:27.860Z,92.71
2017-11-20T19:38:08.455Z,92.99
2017-11-20T19:38:49.021Z,92.99
2017-11-20T19:39:29.625Z,92.8
2017-11-20T19:40:10.174Z,93.08
2017-11-20T19:40:51.896Z,93.18
2017-11-20T19:41:33.859Z,92.9
2017-11-20T19:42:14.468Z,92.9
2017-11-20T19:42:55.042Z,93.46
2017-11-20T19:43:35.618Z,93.46
2017-11-20T19:44:43.320Z,93.18
2017-11-20T19:45:23.912Z,93.27
2017-11-20T19:46:04.485Z,92.99
2017-11-20T19:47:04.465Z,93.27
2017-11-20T19:47:51.692Z,93.27
2017-11-20T19:48:32.300Z,93.27
2017-11-20T19:49:12.894Z,92.71
2017-11-20T19:49:53.525Z,93.37
2017-11-20T19:50:48.211Z,93.84
2017-11-20T19:51:40.272Z,94.13
2017-11-20T19:52:20.835Z,93.37
2017-11-20T19:53:01.417Z,93.84
2017-11-20T19:53:42.045Z,95.17
2017-11-20T19:54:22.590Z,97.92
2017-11-20T19:55:03.229Z,99.99
2017-11-20T19:55:43.776Z,99.99
2017-11-20T19:56:24.362Z,99.99
2017-11-20T19:57:04.897Z,99.99
2017-11-20T19:57:45.480Z,99.99
2017-11-20T19:58:26.071Z,99.99
2017-11-20T19:59:08.428Z,99.99
2017-11-20T19:59:59.735Z,99.99
2017-11-20T20:00:40.657Z,99.5
2017-11-20T20:01:21.249Z,96.93
2017-11-20T20:02:01.796Z,93.7
2017-11-20T20:02:42.365Z,91.13
2017-11-20T20:03:23.503Z,88.67
2017-11-20T20:04:04.081Z,87.9
2017-11-20T20:04:44.667Z,87.14
2017-11-20T20:05:25.227Z,87.34
2017-11-20T20:06:05.914Z,87.14
2017-11-20T20:06:46.470Z,87.1
2017-11-20T20:07:27.075Z,87.29
2017-11-20T20:08:07.648Z,87.1
2017-11-20T20:08:48.225Z,87.01
2017-11-20T20:09:28.803Z,87.19
2017-11-20T20:10:09.374Z,87.01
2017-11-20T20:10:49.949Z,87.29
2017-11-20T20:11:30.520Z,87.48
2017-11-20T20:12:11.140Z,88.24
2017-11-20T20:12:51.701Z,87.95
2017-11-20T20:13:32.345Z,88.05
2017-11-20T20:14:12.909Z,88.24
2017-11-20T20:14:53.486Z,87.72
2017-11-20T20:15:34.123Z,88.01
2017-11-20T20:16:14.717Z,87.82
2017-11-20T20:16:55.305Z,87.91
2017-11-20T20:17:35.871Z,88.1
2017-11-20T20:19:48.997Z,89.05
2017-11-20T20:20:29.569Z,88.67
2017-11-20T20:21:10.173Z,88.48
2017-11-20T20:21:50.770Z,89.33
2017-11-20T20:22:31.451Z,89.24
2017-11-20T20:23:12.040Z,89.43
2017-11-20T20:23:52.617Z,89.24
2017-11-20T20:24:33.218Z,89.62
2017-11-20T20:25:13.843Z,89.72
2017-11-20T20:25:54.541Z,90.19
2017-11-20T20:26:35.117Z,90.19
2017-11-20T20:27:16.638Z,89.81
2017-11-20T20:27:57.213Z,90.24
2017-11-20T20:28:37.815Z,90.38
2017-11-20T20:29:18.399Z,90.19
2017-11-20T20:29:58.983Z,90
2017-11-20T20:30:39.584Z,90.09
2017-11-20T20:31:20.160Z,90.38
2017-11-20T20:32:00.751Z,89.81
2017-11-20T20:32:41.337Z,89.72
2017-11-20T20:33:21.951Z,89.67
2017-11-20T20:34:02.658Z,90.05
2017-11-20T20:34:43.249Z,90
2017-11-20T20:35:23.821Z,89.76
2017-11-20T20:36:04.428Z,89.48
2017-11-20T20:36:45.024Z,90.33
2017-11-20T20:37:25.591Z,89.86
2017-11-20T20:38:06.173Z,90.24
2017-11-20T20:38:46.796Z,89.76
2017-11-20T20:39:27.358Z,90.43
2017-11-20T20:40:07.987Z,90.05
2017-11-20T20:40:48.497Z,90.43
2017-11-20T20:41:29.098Z,90.33
2017-11-20T20:42:09.675Z,91
2017-11-20T20:42:50.265Z,90.71
2017-11-20T20:43:30.854Z,90.81
2017-11-20T20:44:11.448Z,90.71
2017-11-20T20:44:52.031Z,90.71
2017-11-20T20:45:32.611Z,90.81
2017-11-20T20:46:13.165Z,90.62
2017-11-20T20:46:53.737Z,90.43
2017-11-20T20:47:34.318Z,90.71
2017-11-20T20:48:14.907Z,90.62
2017-11-20T20:48:55.504Z,90.52
2017-11-20T20:49:36.082Z,90.71
2017-11-20T20:50:16.688Z,91
2017-11-20T20:50:57.236Z,91.19
2017-11-20T20:51:37.811Z,91.38
2017-11-20T20:52:18.377Z,91.09
2017-11-20T20:52:58.982Z,91.28
2017-11-20T20:53:39.554Z,91.38
2017-11-20T20:54:20.128Z,91.38
2017-11-20T20:55:00.719Z,91.38
2017-11-20T20:55:41.369Z,91
2017-11-20T20:56:21.944Z,90.52
2017-11-20T20:57:02.515Z,90.52
2017-11-20T20:57:43.101Z,90.33
2017-11-20T20:58:23.713Z,90.43
2017-11-20T20:59:04.275Z,90.9
2017-11-20T20:59:44.840Z,90.81
2017-11-20T21:00:25.419Z,91
2017-11-20T21:01:05.995Z,90.43
2017-11-20T21:01:46.578Z,90.81
2017-11-20T21:02:27.166Z,90.81
2017-11-20T21:03:07.738Z,90.62
2017-11-20T21:03:48.307Z,91.19
2017-11-20T21:04:28.860Z,91.38
2017-11-20T21:05:09.452Z,91.19
2017-11-20T21:05:50.036Z,91.19
2017-11-20T21:06:30.600Z,91.56
2017-11-20T21:07:11.187Z,91.61
2017-11-20T21:07:51.745Z,91.85
2017-11-20T21:08:32.336Z,91.75
2017-11-20T21:09:12.918Z,91.61
2017-11-20T21:09:53.575Z,91.99
2017-11-20T21:10:34.139Z,91.56
2017-11-20T21:11:14.705Z,91.47
2017-11-20T21:11:55.297Z,91.61
2017-11-20T21:12:35.880Z,91.52
2017-11-20T21:13:16.443Z,91.61
2017-11-20T21:13:57.012Z,91.33
2017-11-20T21:14:37.608Z,91.42
2017-11-20T21:15:18.180Z,91.19
2017-11-20T21:15:58.761Z,91.19
2017-11-20T21:16:39.361Z,91
2017-11-20T21:17:20.031Z,91.38
2017-11-20T21:18:00.620Z,91.42
2017-11-20T21:18:41.207Z,91.56
2017-11-20T21:19:21.777Z,91
2017-11-20T21:20:02.373Z,91.24
2017-11-20T21:20:42.977Z,91.14
2017-11-20T21:21:23.555Z,91.33
2017-11-20T21:22:04.154Z,91.19
2017-11-20T21:22:44.736Z,91.14
2017-11-20T21:23:25.298Z,91.56
2017-11-20T21:24:05.885Z,91.75
2017-11-20T21:24:46.458Z,91.8
2017-11-20T21:25:27.072Z,91.61
2017-11-20T21:26:07.649Z,91.24
2017-11-20T21:26:48.213Z,91.56
2017-11-20T21:27:29.776Z,91.47
2017-11-20T21:28:10.350Z,91.56
2017-11-20T21:28:50.942Z,91.38
2017-11-20T21:29:31.561Z,91.66
2017-11-20T21:30:12.133Z,91.09
2017-11-20T21:30:52.711Z,91.47
2017-11-20T21:31:33.286Z,91.47
2017-11-20T21:32:13.853Z,91.56
2017-11-20T21:32:54.423Z,92.04
2017-11-20T21:33:35.026Z,91.56
2017-11-20T21:34:15.612Z,91.38
2017-11-20T21:34:56.243Z,91.75
2017-11-20T21:35:36.805Z,91.47
2017-11-20T21:36:17.385Z,91.56
2017-11-20T21:36:57.943Z,91.85
2017-11-20T21:37:38.598Z,92.42
2017-11-20T21:38:19.162Z,92.14
2017-11-20T21:38:59.756Z,91.75
2017-11-20T21:39:40.345Z,91.56
2017-11-20T21:40:20.883Z,91.75
2017-11-20T21:41:01.479Z,91.94
2017-11-20T21:41:42.087Z,92.04
2017-11-20T21:42:22.638Z,92.23
2017-11-20T21:43:03.256Z,91.66
2017-11-20T21:43:43.814Z,91.94
2017-11-20T21:44:24.465Z,91.28
2017-11-20T21:45:05.012Z,91.85
2017-11-20T21:45:45.625Z,91.85
2017-11-20T21:46:26.229Z,91.94
2017-11-20T21:47:07.070Z,92.23
2017-11-20T21:47:47.661Z,92.61
2017-11-20T21:48:28.217Z,92.8
2017-11-20T21:49:08.867Z,92.33
2017-11-20T21:49:49.485Z,92.42
2017-11-20T21:50:30.130Z,92.23
2017-11-20T21:51:10.734Z,92.14
2017-11-20T21:51:51.328Z,92.23
2017-11-20T21:52:31.984Z,92.23
2017-11-20T21:53:12.580Z,92.14
2017-11-20T21:53:53.204Z,92.42
2017-11-20T21:54:33.772Z,92.42